Alida, Minnesota
Current Conditions -  °F | °C
As of 3:32 PM on Wednesday 17 Dec 2014 (Local Time) from KBJI Reporting Station
Clear Clear  
Wind Chill: 14°   Ceiling: Unl
Heat Index: 20°   Visibility: 10mi
Dew Point: 13°   Wind: 5mph
Humidity: 73%   Direction: 20°NNE
Pressure: 30.28"   Gusts: NA
Location:  47.4609°N, 95.2384°W
Report Text: KBJI 172132Z AUTO 02004KT 10SM CLR M07/M11 A3028 RMK AO2 T10661108
Loading
Personal Weather Stations






























Interactive Weather Map New forecast layout! Learn more

10-Day Weather Forecast

Advertisements
Track Severe Weather on mobile